PUA272 GCLP-EIDW
Flight info
| Callsign | PUA272 |
|---|---|
| Flight time | 3h 56m |
| Altitude | 34000 |
| Route | VASTO DCT NIDEB DCT TIGGI DCT IBIDO DCT XERES DCT ADVAT/M080F350 T290 GELPO DCT JABEX/N0459F350 DCT BIBLA DCT SOVIX DCT CML DCT SUTEX SUTEX4L |
| Aircraft | B738/M-SDE2E3FGHIRWXY/LB1 |
Departure
| Time | 2026-05-04 22:15 |
|---|---|
| Airport | Gran Canaria Airport (GCLP) |
Arrival
| Time | 2026-05-05 02:12 |
|---|---|
| Airport | Dublin Airport (EIDW) |
| Time | Latitude | Longitude | Altitude | Speed | Heading |
|---|---|---|---|---|---|
| 2026-05-04 21:09 | 27.93648 | -15.38906 | 50 ft | 0 kts | 290° |
| 2026-05-04 21:51 | 27.93645 | -15.38896 | 48 ft | 4 kts | 290° |
| 2026-05-04 21:52 | 27.93635 | -15.38867 | 46 ft | 4 kts | 290° |
| 2026-05-04 21:52 | 27.93627 | -15.38843 | 49 ft | 4 kts | 273° |
| 2026-05-04 21:52 | 27.93634 | -15.38818 | 49 ft | 4 kts | 215° |
| 2026-05-04 21:52 | 27.93658 | -15.38806 | 47 ft | 4 kts | 195° |
| 2026-05-04 21:53 | 27.93675 | -15.38801 | 49 ft | 0 kts | 200° |
| 2026-05-04 21:57 | 27.93656 | -15.38809 | 49 ft | 8 kts | 201° |
| 2026-05-04 21:58 | 27.93589 | -15.38839 | 48 ft | 11 kts | 202° |
| 2026-05-04 21:58 | 27.93519 | -15.38867 | 48 ft | 11 kts | 197° |
| 2026-05-04 21:58 | 27.93451 | -15.38868 | 52 ft | 10 kts | 135° |
| 2026-05-04 21:58 | 27.93410 | -15.38804 | 53 ft | 10 kts | 126° |
| 2026-05-04 21:59 | 27.93375 | -15.38774 | 53 ft | 10 kts | 175° |
| 2026-05-04 21:59 | 27.93312 | -15.38797 | 50 ft | 10 kts | 202° |
| 2026-05-04 21:59 | 27.93251 | -15.38824 | 55 ft | 9 kts | 201° |
| 2026-05-04 21:59 | 27.93190 | -15.38850 | 54 ft | 9 kts | 201° |
| 2026-05-04 22:00 | 27.93135 | -15.38881 | 57 ft | 9 kts | 207° |
| 2026-05-04 22:00 | 27.93080 | -15.38907 | 55 ft | 9 kts | 202° |
| 2026-05-04 22:00 | 27.93026 | -15.38931 | 54 ft | 8 kts | 201° |
| 2026-05-04 22:00 | 27.92973 | -15.38954 | 54 ft | 8 kts | 201° |
| 2026-05-04 22:01 | 27.92920 | -15.38977 | 54 ft | 8 kts | 201° |
| 2026-05-04 22:01 | 27.92871 | -15.38998 | 62 ft | 8 kts | 201° |
| 2026-05-04 22:01 | 27.92824 | -15.39020 | 58 ft | 7 kts | 201° |
| 2026-05-04 22:01 | 27.92777 | -15.39040 | 62 ft | 7 kts | 201° |
| 2026-05-04 22:02 | 27.92732 | -15.39060 | 61 ft | 7 kts | 201° |
| 2026-05-04 22:02 | 27.92688 | -15.39079 | 62 ft | 7 kts | 201° |
| 2026-05-04 22:02 | 27.92644 | -15.39099 | 63 ft | 7 kts | 201° |
| 2026-05-04 22:02 | 27.92602 | -15.39118 | 66 ft | 7 kts | 202° |
| 2026-05-04 22:03 | 27.92560 | -15.39137 | 59 ft | 6 kts | 202° |
| 2026-05-04 22:03 | 27.92519 | -15.39156 | 63 ft | 6 kts | 202° |
| 2026-05-04 22:03 | 27.92479 | -15.39173 | 68 ft | 6 kts | 200° |
| 2026-05-04 22:03 | 27.92439 | -15.39189 | 68 ft | 6 kts | 200° |
| 2026-05-04 22:04 | 27.92401 | -15.39206 | 69 ft | 6 kts | 202° |
| 2026-05-04 22:04 | 27.92363 | -15.39223 | 61 ft | 6 kts | 202° |
| 2026-05-04 22:04 | 27.92325 | -15.39240 | 63 ft | 6 kts | 202° |
| 2026-05-04 22:04 | 27.92287 | -15.39257 | 71 ft | 6 kts | 201° |
| 2026-05-04 22:05 | 27.92250 | -15.39273 | 71 ft | 6 kts | 201° |
| 2026-05-04 22:05 | 27.92213 | -15.39289 | 72 ft | 6 kts | 201° |
| 2026-05-04 22:05 | 27.92177 | -15.39305 | 67 ft | 6 kts | 200° |
| 2026-05-04 22:05 | 27.92134 | -15.39310 | 73 ft | 9 kts | 179° |
| 2026-05-04 22:06 | 27.92070 | -15.39305 | 74 ft | 9 kts | 175° |
| 2026-05-04 22:06 | 27.92025 | -15.39301 | 74 ft | 0 kts | 175° |
| 2026-05-04 22:13 | 27.91988 | -15.39298 | 74 ft | 11 kts | 175° |
| 2026-05-04 22:13 | 27.91921 | -15.39252 | 72 ft | 11 kts | 115° |
| 2026-05-04 22:13 | 27.91918 | -15.39225 | 75 ft | 3 kts | 54° |
| 2026-05-04 22:13 | 27.91932 | -15.39216 | 72 ft | 0 kts | 23° |
| 2026-05-04 22:14 | 27.92020 | -15.39176 | 68 ft | 42 kts | 21° |
| 2026-05-04 22:14 | 27.92305 | -15.39049 | 66 ft | 87 kts | 21° |
| 2026-05-04 22:14 | 27.93056 | -15.38718 | 56 ft | 143 kts | 21° |
| 2026-05-04 22:15 | 27.94086 | -15.38259 | 372 ft | 163 kts | 21° |
| 2026-05-04 22:15 | 27.95169 | -15.37767 | 933 ft | 175 kts | 20° |
| 2026-05-04 22:15 | 27.96331 | -15.37260 | 1518 ft | 183 kts | 20° |
| 2026-05-04 22:15 | 27.97606 | -15.36705 | 1733 ft | 209 kts | 20° |
| 2026-05-04 22:16 | 27.99001 | -15.36104 | 2155 ft | 219 kts | 20° |
| 2026-05-04 22:16 | 28.00494 | -15.35465 | 2394 ft | 241 kts | 20° |
| 2026-05-04 22:16 | 28.02102 | -15.34779 | 2990 ft | 250 kts | 21° |
| 2026-05-04 22:16 | 28.03748 | -15.34078 | 3700 ft | 255 kts | 20° |
| 2026-05-04 22:17 | 28.05426 | -15.33355 | 3986 ft | 257 kts | 20° |
| 2026-05-04 22:17 | 28.07070 | -15.32639 | 4185 ft | 246 kts | 20° |
| 2026-05-04 22:17 | 28.08657 | -15.31948 | 4577 ft | 251 kts | 20° |
| 2026-05-04 22:17 | 28.10313 | -15.31227 | 4975 ft | 265 kts | 20° |
| 2026-05-04 22:18 | 28.12060 | -15.30468 | 5343 ft | 271 kts | 20° |
| 2026-05-04 22:18 | 28.13816 | -15.29703 | 5710 ft | 271 kts | 19° |
| 2026-05-04 22:18 | 28.15622 | -15.29044 | 6129 ft | 275 kts | 13° |
| 2026-05-04 22:18 | 28.17507 | -15.28512 | 6748 ft | 282 kts | 12° |
| 2026-05-04 22:19 | 28.19427 | -15.27991 | 7391 ft | 286 kts | 11° |
| 2026-05-04 22:19 | 28.21378 | -15.27455 | 8038 ft | 291 kts | 12° |
| 2026-05-04 22:19 | 28.23363 | -15.26903 | 8684 ft | 297 kts | 12° |
| 2026-05-04 22:19 | 28.25381 | -15.26335 | 9343 ft | 301 kts | 12° |
| 2026-05-04 22:20 | 28.27439 | -15.25750 | 9979 ft | 307 kts | 11° |
| 2026-05-04 22:20 | 28.29537 | -15.25153 | 10443 ft | 319 kts | 11° |
| 2026-05-04 22:20 | 28.31766 | -15.24519 | 10587 ft | 341 kts | 12° |
| 2026-05-04 22:20 | 28.34030 | -15.23501 | 10797 ft | 362 kts | 30° |
| 2026-05-04 22:21 | 28.36168 | -15.21917 | 11289 ft | 371 kts | 32° |
| 2026-05-04 22:21 | 28.38321 | -15.20263 | 11863 ft | 376 kts | 32° |
| 2026-05-04 22:21 | 28.40499 | -15.18586 | 12453 ft | 381 kts | 32° |
| 2026-05-04 22:21 | 28.42712 | -15.16894 | 12998 ft | 386 kts | 31° |
| 2026-05-04 22:22 | 28.44965 | -15.15186 | 13544 ft | 392 kts | 31° |
| 2026-05-04 22:22 | 28.47252 | -15.13462 | 14076 ft | 397 kts | 31° |
| 2026-05-04 22:22 | 28.49567 | -15.11722 | 14620 ft | 401 kts | 30° |
| 2026-05-04 22:22 | 28.51904 | -15.09970 | 15203 ft | 403 kts | 30° |
| 2026-05-04 22:23 | 28.54252 | -15.08210 | 15770 ft | 406 kts | 30° |
| 2026-05-04 22:23 | 28.56622 | -15.06433 | 16335 ft | 409 kts | 30° |
| 2026-05-04 22:23 | 28.59008 | -15.04644 | 16873 ft | 413 kts | 30° |
| 2026-05-04 22:23 | 28.61416 | -15.02837 | 17420 ft | 416 kts | 30° |
| 2026-05-04 22:24 | 28.63844 | -15.01015 | 17952 ft | 420 kts | 29° |
| 2026-05-04 22:24 | 28.66291 | -14.99176 | 18490 ft | 423 kts | 29° |
| 2026-05-04 22:24 | 28.68760 | -14.97320 | 18950 ft | 427 kts | 29° |
| 2026-05-04 22:24 | 28.71246 | -14.95450 | 19430 ft | 430 kts | 29° |
| 2026-05-04 22:25 | 28.73748 | -14.93566 | 19917 ft | 433 kts | 29° |
| 2026-05-04 22:25 | 28.76268 | -14.91667 | 20381 ft | 436 kts | 28° |
| 2026-05-04 22:25 | 28.78809 | -14.89752 | 20824 ft | 439 kts | 28° |
| 2026-05-04 22:25 | 28.81370 | -14.87821 | 21256 ft | 443 kts | 28° |
| 2026-05-04 22:26 | 28.83948 | -14.85875 | 21689 ft | 446 kts | 28° |
| 2026-05-04 22:26 | 28.86550 | -14.83911 | 22119 ft | 450 kts | 28° |
| 2026-05-04 22:26 | 28.89169 | -14.81933 | 22539 ft | 453 kts | 28° |
| 2026-05-04 22:26 | 28.91809 | -14.79940 | 22952 ft | 456 kts | 28° |
| 2026-05-04 22:27 | 28.94465 | -14.77934 | 23361 ft | 460 kts | 28° |
| 2026-05-04 22:27 | 28.97142 | -14.75910 | 23757 ft | 463 kts | 28° |
| 2026-05-04 22:27 | 28.99836 | -14.73871 | 24097 ft | 466 kts | 28° |
| 2026-05-04 22:27 | 29.02541 | -14.71821 | 24462 ft | 468 kts | 27° |
| 2026-05-04 22:28 | 29.05228 | -14.69783 | 24810 ft | 471 kts | 27° |
| 2026-05-04 22:28 | 29.07994 | -14.67684 | 25173 ft | 472 kts | 28° |
| 2026-05-04 22:28 | 29.10734 | -14.65602 | 25541 ft | 474 kts | 28° |
| 2026-05-04 22:28 | 29.13490 | -14.63509 | 25887 ft | 476 kts | 28° |
| 2026-05-04 22:29 | 29.16260 | -14.61403 | 26220 ft | 478 kts | 28° |
| 2026-05-04 22:29 | 29.19034 | -14.59292 | 26549 ft | 480 kts | 28° |
| 2026-05-04 22:29 | 29.21786 | -14.57197 | 26871 ft | 482 kts | 28° |
| 2026-05-04 22:29 | 29.24582 | -14.55067 | 27230 ft | 483 kts | 28° |
| 2026-05-04 22:30 | 29.27386 | -14.52929 | 27563 ft | 485 kts | 28° |
| 2026-05-04 22:30 | 29.30202 | -14.50782 | 27856 ft | 487 kts | 28° |
| 2026-05-04 22:30 | 29.33030 | -14.48623 | 28197 ft | 489 kts | 29° |
| 2026-05-04 22:30 | 29.35856 | -14.46464 | 28578 ft | 489 kts | 29° |
| 2026-05-04 22:31 | 29.38691 | -14.44297 | 28871 ft | 491 kts | 29° |
| 2026-05-04 22:31 | 29.41540 | -14.42118 | 29115 ft | 494 kts | 29° |
| 2026-05-04 22:31 | 29.44405 | -14.39926 | 29371 ft | 496 kts | 29° |
| 2026-05-04 22:31 | 29.47283 | -14.37722 | 29638 ft | 498 kts | 29° |
| 2026-05-04 22:32 | 29.50169 | -14.35510 | 29912 ft | 500 kts | 29° |
| 2026-05-04 22:32 | 29.53064 | -14.33289 | 30206 ft | 501 kts | 29° |
| 2026-05-04 22:32 | 29.55959 | -14.31066 | 30513 ft | 500 kts | 29° |
| 2026-05-04 22:32 | 29.58850 | -14.28845 | 30812 ft | 500 kts | 29° |
| 2026-05-04 22:33 | 29.61737 | -14.26625 | 31078 ft | 500 kts | 29° |
| 2026-05-04 22:33 | 29.64633 | -14.24398 | 31379 ft | 500 kts | 29° |
| 2026-05-04 22:33 | 29.67519 | -14.22176 | 31690 ft | 499 kts | 29° |
| 2026-05-04 22:33 | 29.70399 | -14.19957 | 31925 ft | 500 kts | 28° |
| 2026-05-04 22:34 | 29.73295 | -14.17726 | 32119 ft | 501 kts | 28° |
| 2026-05-04 22:34 | 29.76191 | -14.15493 | 32356 ft | 502 kts | 28° |
| 2026-05-04 22:34 | 29.79091 | -14.13255 | 32628 ft | 502 kts | 28° |
| 2026-05-04 22:34 | 29.81987 | -14.11018 | 32895 ft | 501 kts | 28° |
| 2026-05-04 22:35 | 29.84885 | -14.08778 | 33126 ft | 502 kts | 28° |
| 2026-05-04 22:35 | 29.87786 | -14.06535 | 33338 ft | 503 kts | 28° |
| 2026-05-04 22:35 | 29.90692 | -14.04286 | 33541 ft | 504 kts | 28° |
| 2026-05-04 22:35 | 29.93601 | -14.02033 | 33777 ft | 504 kts | 28° |
| 2026-05-04 22:36 | 29.96504 | -13.99781 | 34028 ft | 503 kts | 28° |
| 2026-05-04 22:36 | 29.99417 | -13.97521 | 34150 ft | 505 kts | 28° |
| 2026-05-04 22:36 | 30.02340 | -13.95253 | 34135 ft | 507 kts | 28° |
| 2026-05-04 22:37 | 30.08174 | -13.90716 | 34129 ft | 503 kts | 28° |
| 2026-05-04 22:37 | 30.13958 | -13.86212 | 34135 ft | 500 kts | 28° |
| 2026-05-04 22:38 | 30.19711 | -13.81726 | 34134 ft | 498 kts | 28° |
| 2026-05-04 22:38 | 30.25447 | -13.77250 | 34157 ft | 497 kts | 29° |
| 2026-05-04 22:39 | 30.31173 | -13.72774 | 34147 ft | 496 kts | 29° |
| 2026-05-04 22:39 | 30.36889 | -13.68300 | 34139 ft | 496 kts | 29° |
| 2026-05-04 22:40 | 30.42603 | -13.63819 | 34143 ft | 496 kts | 29° |
| 2026-05-04 22:40 | 30.48272 | -13.59369 | 34381 ft | 495 kts | 32° |
| 2026-05-04 22:40 | 30.51122 | -13.57136 | 34031 ft | 494 kts | 27° |
| 2026-05-04 22:41 | 30.54053 | -13.55066 | 34145 ft | 493 kts | 23° |
| 2026-05-04 22:41 | 30.60138 | -13.51298 | 34141 ft | 499 kts | 21° |
| 2026-05-04 22:42 | 30.66324 | -13.47583 | 34125 ft | 501 kts | 21° |
| 2026-05-04 22:42 | 30.72494 | -13.43780 | 34134 ft | 503 kts | 22° |
| 2026-05-04 22:43 | 30.78652 | -13.39915 | 34133 ft | 503 kts | 22° |
| 2026-05-04 22:43 | 30.84790 | -13.36040 | 34153 ft | 499 kts | 22° |
| 2026-05-04 22:44 | 30.90822 | -13.32223 | 34131 ft | 490 kts | 22° |
| 2026-05-04 22:44 | 30.96820 | -13.28436 | 34145 ft | 491 kts | 22° |
| 2026-05-04 22:45 | 31.02833 | -13.24639 | 34142 ft | 492 kts | 22° |
| 2026-05-04 22:45 | 31.11874 | -13.18912 | 34171 ft | 494 kts | 23° |
| 2026-05-04 22:46 | 31.17920 | -13.15075 | 34138 ft | 495 kts | 23° |
| 2026-05-04 22:46 | 31.23965 | -13.11230 | 34137 ft | 494 kts | 23° |
| 2026-05-04 22:47 | 31.29998 | -13.07388 | 34131 ft | 493 kts | 23° |
| 2026-05-04 22:47 | 31.36009 | -13.03555 | 34133 ft | 492 kts | 23° |
| 2026-05-04 22:48 | 31.42004 | -12.99727 | 34154 ft | 490 kts | 23° |
| 2026-05-04 22:48 | 31.47982 | -12.95904 | 34139 ft | 489 kts | 23° |
| 2026-05-04 22:49 | 31.53941 | -12.92088 | 34135 ft | 487 kts | 23° |
| 2026-05-04 22:49 | 31.59880 | -12.88279 | 34138 ft | 486 kts | 23° |
| 2026-05-04 22:50 | 31.65807 | -12.84473 | 34139 ft | 485 kts | 23° |
| 2026-05-04 22:50 | 31.71729 | -12.80664 | 34161 ft | 485 kts | 24° |
| 2026-05-04 22:51 | 31.77646 | -12.76853 | 34130 ft | 485 kts | 24° |
| 2026-05-04 22:51 | 31.83563 | -12.73036 | 34140 ft | 485 kts | 24° |
| 2026-05-04 22:52 | 31.89475 | -12.69217 | 34144 ft | 485 kts | 24° |
| 2026-05-04 22:52 | 31.95386 | -12.65392 | 34145 ft | 485 kts | 24° |
| 2026-05-04 22:53 | 32.01296 | -12.61563 | 34157 ft | 485 kts | 24° |
| 2026-05-04 22:53 | 32.07211 | -12.57724 | 34154 ft | 485 kts | 24° |
| 2026-05-04 22:54 | 32.13121 | -12.53883 | 34146 ft | 485 kts | 24° |
| 2026-05-04 22:54 | 32.18987 | -12.50065 | 34149 ft | 484 kts | 24° |
| 2026-05-04 22:55 | 32.24881 | -12.46223 | 34148 ft | 484 kts | 24° |
| 2026-05-04 22:55 | 32.30770 | -12.42379 | 34163 ft | 483 kts | 25° |
| 2026-05-04 22:56 | 32.36647 | -12.38536 | 34136 ft | 482 kts | 24° |
| 2026-05-04 22:56 | 32.42497 | -12.34705 | 34140 ft | 480 kts | 24° |
| 2026-05-04 22:57 | 32.48331 | -12.30879 | 34156 ft | 478 kts | 24° |
| 2026-05-04 22:57 | 32.54145 | -12.27061 | 34144 ft | 477 kts | 25° |
| 2026-05-04 22:58 | 32.59945 | -12.23247 | 34151 ft | 476 kts | 25° |
| 2026-05-04 22:58 | 32.64751 | -12.20081 | 34150 ft | 475 kts | 25° |
| 2026-05-04 22:59 | 32.70523 | -12.16274 | 34154 ft | 474 kts | 25° |
| 2026-05-04 22:59 | 32.76291 | -12.12464 | 34156 ft | 474 kts | 25° |
| 2026-05-04 23:00 | 32.82051 | -12.08653 | 34156 ft | 474 kts | 25° |
| 2026-05-04 23:00 | 32.87815 | -12.04835 | 34166 ft | 475 kts | 25° |
| 2026-05-04 23:01 | 32.93588 | -12.01004 | 34156 ft | 476 kts | 25° |
| 2026-05-04 23:01 | 32.99604 | -11.97898 | 34169 ft | 468 kts | 11° |
| 2026-05-04 23:02 | 33.05889 | -11.95824 | 34161 ft | 469 kts | 10° |
| 2026-05-04 23:02 | 33.12198 | -11.93772 | 34168 ft | 471 kts | 11° |
| 2026-05-04 23:03 | 33.18513 | -11.91662 | 34153 ft | 472 kts | 11° |
| 2026-05-04 23:03 | 33.24836 | -11.89511 | 34153 ft | 472 kts | 11° |
| 2026-05-04 23:04 | 33.31151 | -11.87351 | 34151 ft | 472 kts | 11° |
| 2026-05-04 23:04 | 33.37415 | -11.85207 | 34154 ft | 471 kts | 11° |
| 2026-05-04 23:05 | 33.43703 | -11.83054 | 34160 ft | 470 kts | 12° |
| 2026-05-04 23:05 | 33.49972 | -11.80904 | 34150 ft | 468 kts | 12° |
| 2026-05-04 23:06 | 33.56218 | -11.78759 | 34156 ft | 466 kts | 12° |
| 2026-05-04 23:06 | 33.62436 | -11.76621 | 34156 ft | 464 kts | 12° |
| 2026-05-04 23:07 | 33.68633 | -11.74487 | 34177 ft | 462 kts | 12° |
| 2026-05-04 23:07 | 33.74794 | -11.72362 | 34160 ft | 459 kts | 12° |
| 2026-05-04 23:08 | 33.80918 | -11.70246 | 34157 ft | 456 kts | 12° |
| 2026-05-04 23:08 | 33.87003 | -11.68141 | 34160 ft | 454 kts | 12° |
| 2026-05-04 23:09 | 33.93063 | -11.66042 | 34178 ft | 452 kts | 12° |
| 2026-05-04 23:09 | 33.99108 | -11.63945 | 34162 ft | 451 kts | 12° |
| 2026-05-04 23:10 | 34.05135 | -11.61851 | 34164 ft | 451 kts | 12° |
| 2026-05-04 23:10 | 34.11158 | -11.59755 | 34165 ft | 450 kts | 12° |
| 2026-05-04 23:11 | 34.17182 | -11.57656 | 34167 ft | 451 kts | 12° |
| 2026-05-04 23:11 | 34.23216 | -11.55550 | 34174 ft | 452 kts | 12° |
| 2026-05-04 23:12 | 34.29273 | -11.53434 | 34176 ft | 454 kts | 12° |
| 2026-05-04 23:12 | 34.35352 | -11.51306 | 34174 ft | 456 kts | 12° |
| 2026-05-04 23:13 | 34.41455 | -11.49166 | 34173 ft | 457 kts | 12° |
| 2026-05-04 23:13 | 34.47574 | -11.47017 | 34182 ft | 459 kts | 11° |
| 2026-05-04 23:14 | 34.53717 | -11.44857 | 34178 ft | 460 kts | 11° |
| 2026-05-04 23:14 | 34.59863 | -11.42691 | 34173 ft | 460 kts | 11° |
| 2026-05-04 23:15 | 34.66014 | -11.40521 | 34173 ft | 460 kts | 11° |
| 2026-05-04 23:15 | 34.72161 | -11.38349 | 34197 ft | 460 kts | 11° |
| 2026-05-04 23:16 | 34.78304 | -11.36175 | 34177 ft | 460 kts | 11° |
| 2026-05-04 23:16 | 34.84445 | -11.33999 | 34176 ft | 460 kts | 11° |
| 2026-05-04 23:17 | 34.90584 | -11.31820 | 34176 ft | 459 kts | 11° |
| 2026-05-04 23:17 | 34.96723 | -11.29637 | 34168 ft | 459 kts | 11° |
| 2026-05-04 23:18 | 35.02860 | -11.27452 | 34182 ft | 460 kts | 11° |
| 2026-05-04 23:18 | 35.09012 | -11.25258 | 34179 ft | 461 kts | 11° |
| 2026-05-04 23:19 | 35.15170 | -11.23059 | 34176 ft | 461 kts | 11° |
| 2026-05-04 23:19 | 35.21334 | -11.20854 | 34173 ft | 462 kts | 11° |
| 2026-05-04 23:20 | 35.27507 | -11.18641 | 34185 ft | 463 kts | 11° |
| 2026-05-04 23:20 | 35.33683 | -11.16425 | 34178 ft | 463 kts | 11° |
| 2026-05-04 23:21 | 35.39827 | -11.14216 | 34176 ft | 463 kts | 11° |
| 2026-05-04 23:21 | 35.46009 | -11.11990 | 34159 ft | 463 kts | 11° |
| 2026-05-04 23:22 | 35.52184 | -11.09763 | 34175 ft | 463 kts | 11° |
| 2026-05-04 23:22 | 35.58357 | -11.07533 | 34179 ft | 462 kts | 11° |
| 2026-05-04 23:23 | 35.64524 | -11.05302 | 34168 ft | 462 kts | 11° |
| 2026-05-04 23:23 | 35.70683 | -11.03070 | 34180 ft | 461 kts | 11° |
| 2026-05-04 23:24 | 35.76839 | -11.00835 | 34185 ft | 461 kts | 11° |
| 2026-05-04 23:24 | 35.82995 | -10.98597 | 34182 ft | 461 kts | 11° |
| 2026-05-04 23:25 | 35.89149 | -10.96356 | 34174 ft | 461 kts | 11° |
| 2026-05-04 23:25 | 35.95291 | -10.94117 | 34185 ft | 460 kts | 10° |
| 2026-05-04 23:26 | 36.01507 | -10.92707 | 34200 ft | 452 kts | 360° |
| 2026-05-04 23:26 | 36.07759 | -10.91902 | 34187 ft | 452 kts | 359° |
| 2026-05-04 23:27 | 36.14030 | -10.91096 | 34181 ft | 454 kts | 359° |
| 2026-05-04 23:27 | 36.20309 | -10.90232 | 34181 ft | 455 kts | 360° |
| 2026-05-04 23:28 | 36.26610 | -10.89333 | 34209 ft | 456 kts | 359° |
| 2026-05-04 23:28 | 36.32930 | -10.88423 | 34187 ft | 457 kts | 359° |
| 2026-05-04 23:29 | 36.39211 | -10.87518 | 34180 ft | 458 kts | 359° |
| 2026-05-04 23:29 | 36.45536 | -10.86605 | 34177 ft | 457 kts | 359° |
| 2026-05-04 23:30 | 36.51853 | -10.85692 | 34205 ft | 457 kts | 359° |
| 2026-05-04 23:30 | 36.58155 | -10.84781 | 34187 ft | 455 kts | 359° |
| 2026-05-04 23:31 | 36.64434 | -10.83871 | 34168 ft | 453 kts | 358° |
| 2026-05-04 23:31 | 36.70671 | -10.82965 | 34170 ft | 450 kts | 358° |
| 2026-05-04 23:32 | 36.76878 | -10.82064 | 34188 ft | 448 kts | 358° |
| 2026-05-04 23:32 | 36.83066 | -10.81165 | 34179 ft | 447 kts | 358° |
| 2026-05-04 23:33 | 36.89230 | -10.80267 | 34173 ft | 446 kts | 358° |
| 2026-05-04 23:33 | 36.95384 | -10.79370 | 34178 ft | 445 kts | 358° |
| 2026-05-04 23:34 | 37.01538 | -10.78471 | 34182 ft | 446 kts | 358° |
| 2026-05-04 23:34 | 37.07719 | -10.77568 | 34184 ft | 448 kts | 358° |
| 2026-05-04 23:35 | 37.13916 | -10.76660 | 34182 ft | 449 kts | 358° |
| 2026-05-04 23:35 | 37.20139 | -10.75746 | 34181 ft | 451 kts | 358° |
| 2026-05-04 23:36 | 37.26385 | -10.74827 | 34180 ft | 453 kts | 358° |
| 2026-05-04 23:36 | 37.32651 | -10.73903 | 34175 ft | 454 kts | 358° |
| 2026-05-04 23:37 | 37.38925 | -10.72976 | 34174 ft | 454 kts | 358° |
| 2026-05-04 23:37 | 37.45208 | -10.72046 | 34171 ft | 455 kts | 358° |
| 2026-05-04 23:38 | 37.51493 | -10.71114 | 34169 ft | 455 kts | 357° |
| 2026-05-04 23:38 | 37.57770 | -10.70182 | 34169 ft | 454 kts | 357° |
| 2026-05-04 23:39 | 37.64031 | -10.69250 | 34167 ft | 452 kts | 357° |
| 2026-05-04 23:39 | 37.70273 | -10.68320 | 34167 ft | 451 kts | 357° |
| 2026-05-04 23:40 | 37.76501 | -10.67391 | 34171 ft | 450 kts | 357° |
| 2026-05-04 23:40 | 37.82700 | -10.66464 | 34150 ft | 448 kts | 357° |
| 2026-05-04 23:41 | 37.88870 | -10.65540 | 34166 ft | 446 kts | 357° |
| 2026-05-04 23:41 | 37.94978 | -10.64625 | 34165 ft | 444 kts | 357° |
| 2026-05-04 23:42 | 38.01112 | -10.63705 | 34166 ft | 444 kts | 357° |
| 2026-05-04 23:42 | 38.07239 | -10.62784 | 34169 ft | 443 kts | 357° |
| 2026-05-04 23:43 | 38.13370 | -10.61862 | 34167 ft | 444 kts | 357° |
| 2026-05-04 23:43 | 38.19504 | -10.60937 | 34182 ft | 445 kts | 357° |
| 2026-05-04 23:44 | 38.25658 | -10.60007 | 34174 ft | 446 kts | 357° |
| 2026-05-04 23:44 | 38.31831 | -10.59073 | 34164 ft | 447 kts | 357° |
| 2026-05-04 23:45 | 38.36961 | -10.58294 | 34166 ft | 447 kts | 357° |
| 2026-05-04 23:45 | 38.44188 | -10.57196 | 34181 ft | 448 kts | 358° |
| 2026-05-04 23:46 | 38.49334 | -10.56413 | 34172 ft | 448 kts | 358° |
| 2026-05-04 23:46 | 38.55529 | -10.55468 | 34161 ft | 448 kts | 358° |
| 2026-05-04 23:47 | 38.61722 | -10.54521 | 34159 ft | 448 kts | 358° |
| 2026-05-04 23:47 | 38.67909 | -10.53576 | 34164 ft | 448 kts | 359° |
| 2026-05-04 23:48 | 38.74097 | -10.52627 | 34161 ft | 447 kts | 359° |
| 2026-05-04 23:48 | 38.80274 | -10.51678 | 34156 ft | 447 kts | 359° |
| 2026-05-04 23:49 | 38.86442 | -10.50729 | 34157 ft | 446 kts | 359° |
| 2026-05-04 23:49 | 38.92602 | -10.49781 | 34166 ft | 446 kts | 359° |
| 2026-05-04 23:50 | 38.98759 | -10.48831 | 34161 ft | 445 kts | 359° |
| 2026-05-04 23:50 | 39.04909 | -10.47880 | 34160 ft | 445 kts | 359° |
| 2026-05-04 23:51 | 39.11049 | -10.46929 | 34207 ft | 444 kts | 358° |
| 2026-05-04 23:51 | 39.17187 | -10.45980 | 34167 ft | 444 kts | 358° |
| 2026-05-04 23:52 | 39.23323 | -10.45024 | 34158 ft | 444 kts | 358° |
| 2026-05-04 23:52 | 39.29451 | -10.44069 | 34160 ft | 443 kts | 358° |
| 2026-05-04 23:53 | 39.35570 | -10.43114 | 34182 ft | 443 kts | 358° |
| 2026-05-04 23:53 | 39.41687 | -10.42159 | 34166 ft | 442 kts | 358° |
| 2026-05-04 23:54 | 39.47794 | -10.41203 | 34158 ft | 442 kts | 358° |
| 2026-05-04 23:54 | 39.53899 | -10.40246 | 34157 ft | 442 kts | 358° |
| 2026-05-04 23:55 | 39.60003 | -10.39288 | 34159 ft | 442 kts | 357° |
| 2026-05-04 23:56 | 39.69156 | -10.37847 | 34150 ft | 441 kts | 357° |
| 2026-05-04 23:56 | 39.75247 | -10.36886 | 34155 ft | 441 kts | 357° |
| 2026-05-04 23:57 | 39.81329 | -10.35924 | 34186 ft | 441 kts | 356° |
| 2026-05-04 23:57 | 39.87379 | -10.34967 | 34164 ft | 440 kts | 356° |
| 2026-05-04 23:58 | 39.93453 | -10.34003 | 34154 ft | 440 kts | 356° |
| 2026-05-04 23:58 | 39.99517 | -10.33040 | 34154 ft | 439 kts | 356° |
| 2026-05-04 23:59 | 40.05574 | -10.32076 | 34164 ft | 439 kts | 357° |
| 2026-05-04 23:59 | 40.11629 | -10.31110 | 34161 ft | 438 kts | 357° |
| 2026-05-05 00:00 | 40.17667 | -10.30145 | 34149 ft | 437 kts | 357° |
| 2026-05-05 00:00 | 40.23691 | -10.29181 | 34154 ft | 435 kts | 357° |
| 2026-05-05 00:01 | 40.29700 | -10.28218 | 34159 ft | 435 kts | 357° |
| 2026-05-05 00:01 | 40.35703 | -10.27254 | 34145 ft | 434 kts | 357° |
| 2026-05-05 00:02 | 40.41695 | -10.26290 | 34144 ft | 434 kts | 357° |
| 2026-05-05 00:02 | 40.47696 | -10.25324 | 34160 ft | 435 kts | 357° |
| 2026-05-05 00:03 | 40.53703 | -10.24355 | 34154 ft | 435 kts | 357° |
| 2026-05-05 00:03 | 40.59713 | -10.23382 | 34147 ft | 435 kts | 357° |
| 2026-05-05 00:04 | 40.65727 | -10.22407 | 34143 ft | 435 kts | 357° |
| 2026-05-05 00:04 | 40.71742 | -10.21431 | 34154 ft | 436 kts | 358° |
| 2026-05-05 00:05 | 40.77754 | -10.20452 | 34147 ft | 435 kts | 358° |
| 2026-05-05 00:05 | 40.83750 | -10.19475 | 34146 ft | 433 kts | 358° |
| 2026-05-05 00:06 | 40.89730 | -10.18510 | 34176 ft | 431 kts | 357° |
| 2026-05-05 00:06 | 40.95674 | -10.17850 | 34148 ft | 427 kts | 355° |
| 2026-05-05 00:07 | 41.01587 | -10.17305 | 34141 ft | 425 kts | 355° |
| 2026-05-05 00:07 | 41.07433 | -10.16739 | 34139 ft | 423 kts | 356° |
| 2026-05-05 00:08 | 41.13294 | -10.16144 | 34156 ft | 422 kts | 356° |
| 2026-05-05 00:08 | 41.19144 | -10.15540 | 34148 ft | 421 kts | 356° |
| 2026-05-05 00:09 | 41.24984 | -10.14934 | 34134 ft | 421 kts | 356° |
| 2026-05-05 00:09 | 41.30822 | -10.14327 | 34137 ft | 421 kts | 356° |
| 2026-05-05 00:10 | 41.36673 | -10.13720 | 34139 ft | 422 kts | 357° |
| 2026-05-05 00:10 | 41.42541 | -10.13108 | 34136 ft | 424 kts | 357° |
| 2026-05-05 00:11 | 41.48429 | -10.12493 | 34132 ft | 425 kts | 357° |
| 2026-05-05 00:11 | 41.54334 | -10.11875 | 34157 ft | 426 kts | 358° |
| 2026-05-05 00:12 | 41.60265 | -10.11254 | 34139 ft | 428 kts | 358° |
| 2026-05-05 00:12 | 41.66217 | -10.10628 | 34127 ft | 430 kts | 358° |
| 2026-05-05 00:13 | 41.72183 | -10.10000 | 34122 ft | 430 kts | 358° |
| 2026-05-05 00:13 | 41.78154 | -10.09370 | 34128 ft | 431 kts | 359° |
| 2026-05-05 00:14 | 41.84118 | -10.08739 | 34119 ft | 429 kts | 359° |
| 2026-05-05 00:14 | 41.90066 | -10.08109 | 34118 ft | 429 kts | 359° |
| 2026-05-05 00:15 | 41.96019 | -10.07478 | 34123 ft | 429 kts | 359° |
| 2026-05-05 00:15 | 42.01977 | -10.06845 | 34124 ft | 430 kts | 0° |
| 2026-05-05 00:16 | 42.07935 | -10.05875 | 34118 ft | 432 kts | 3° |
| 2026-05-05 00:16 | 42.13887 | -10.04675 | 34115 ft | 432 kts | 4° |
| 2026-05-05 00:17 | 42.19835 | -10.03479 | 34124 ft | 432 kts | 4° |
| 2026-05-05 00:17 | 42.25749 | -10.02321 | 34113 ft | 432 kts | 4° |
| 2026-05-05 00:18 | 42.31698 | -10.01170 | 34106 ft | 432 kts | 4° |
| 2026-05-05 00:18 | 42.37641 | -10.00022 | 34110 ft | 431 kts | 4° |
| 2026-05-05 00:19 | 42.43584 | -9.98872 | 34106 ft | 431 kts | 4° |
| 2026-05-05 00:19 | 42.49516 | -9.97722 | 34100 ft | 431 kts | 4° |
| 2026-05-05 00:20 | 42.55452 | -9.96569 | 34099 ft | 431 kts | 4° |
| 2026-05-05 00:20 | 42.61385 | -9.95413 | 34107 ft | 431 kts | 4° |
| 2026-05-05 00:21 | 42.67317 | -9.94256 | 34100 ft | 431 kts | 4° |
| 2026-05-05 00:21 | 42.73253 | -9.93096 | 34095 ft | 431 kts | 4° |
| 2026-05-05 00:22 | 42.79180 | -9.91935 | 34093 ft | 430 kts | 4° |
| 2026-05-05 00:22 | 42.85106 | -9.90772 | 34091 ft | 430 kts | 4° |
| 2026-05-05 00:23 | 42.91030 | -9.89607 | 34090 ft | 430 kts | 4° |
| 2026-05-05 00:23 | 42.96951 | -9.88441 | 34086 ft | 430 kts | 4° |
| 2026-05-05 00:24 | 43.02868 | -9.87273 | 34094 ft | 429 kts | 5° |
| 2026-05-05 00:24 | 43.08781 | -9.86104 | 34084 ft | 429 kts | 5° |
| 2026-05-05 00:25 | 43.14648 | -9.84941 | 34087 ft | 429 kts | 5° |
| 2026-05-05 00:25 | 43.20553 | -9.83768 | 34078 ft | 429 kts | 5° |
| 2026-05-05 00:26 | 43.26454 | -9.82594 | 34073 ft | 429 kts | 5° |
| 2026-05-05 00:26 | 43.32358 | -9.81418 | 34071 ft | 428 kts | 5° |
| 2026-05-05 00:27 | 43.38259 | -9.80239 | 34073 ft | 428 kts | 5° |
| 2026-05-05 00:27 | 43.44151 | -9.79060 | 34081 ft | 428 kts | 5° |
| 2026-05-05 00:28 | 43.50046 | -9.77878 | 34068 ft | 428 kts | 5° |
| 2026-05-05 00:28 | 43.55937 | -9.76695 | 34068 ft | 428 kts | 5° |
| 2026-05-05 00:29 | 43.61829 | -9.75509 | 34084 ft | 427 kts | 6° |
| 2026-05-05 00:29 | 43.67711 | -9.74323 | 34070 ft | 427 kts | 6° |
| 2026-05-05 00:30 | 43.73589 | -9.73135 | 34064 ft | 427 kts | 6° |
| 2026-05-05 00:30 | 43.79466 | -9.71945 | 34065 ft | 427 kts | 6° |
| 2026-05-05 00:31 | 43.84347 | -9.70955 | 34070 ft | 426 kts | 6° |
| 2026-05-05 00:31 | 43.91208 | -9.69560 | 34056 ft | 426 kts | 6° |
| 2026-05-05 00:32 | 43.96079 | -9.68568 | 34062 ft | 426 kts | 6° |
| 2026-05-05 00:32 | 44.01938 | -9.67373 | 34066 ft | 425 kts | 6° |
| 2026-05-05 00:33 | 44.07792 | -9.66176 | 34054 ft | 425 kts | 6° |
| 2026-05-05 00:33 | 44.13646 | -9.64977 | 34064 ft | 425 kts | 6° |
| 2026-05-05 00:34 | 44.19488 | -9.63777 | 34058 ft | 424 kts | 6° |
| 2026-05-05 00:34 | 44.25329 | -9.62576 | 34064 ft | 424 kts | 6° |
| 2026-05-05 00:35 | 44.31167 | -9.61373 | 34056 ft | 424 kts | 6° |
| 2026-05-05 00:35 | 44.36996 | -9.60169 | 34059 ft | 424 kts | 6° |
| 2026-05-05 00:36 | 44.42831 | -9.58962 | 34051 ft | 424 kts | 6° |
| 2026-05-05 00:36 | 44.48649 | -9.57755 | 34060 ft | 423 kts | 6° |
| 2026-05-05 00:37 | 44.54478 | -9.56544 | 34054 ft | 423 kts | 6° |
| 2026-05-05 00:37 | 44.60307 | -9.55331 | 34059 ft | 424 kts | 7° |
| 2026-05-05 00:38 | 44.66135 | -9.54115 | 34059 ft | 424 kts | 7° |
| 2026-05-05 00:38 | 44.71969 | -9.52896 | 34048 ft | 424 kts | 7° |
| 2026-05-05 00:39 | 44.77791 | -9.51676 | 34076 ft | 423 kts | 7° |
| 2026-05-05 00:39 | 44.83628 | -9.50451 | 34068 ft | 424 kts | 7° |
| 2026-05-05 00:40 | 44.89422 | -9.49232 | 34054 ft | 424 kts | 7° |
| 2026-05-05 00:40 | 44.95255 | -9.48003 | 34050 ft | 424 kts | 7° |
| 2026-05-05 00:41 | 45.01097 | -9.46904 | 34049 ft | 423 kts | 2° |
| 2026-05-05 00:41 | 45.06982 | -9.46881 | 34049 ft | 423 kts | 359° |
| 2026-05-05 00:42 | 45.12866 | -9.47029 | 34055 ft | 423 kts | 359° |
| 2026-05-05 00:42 | 45.18748 | -9.47140 | 34051 ft | 423 kts | 359° |
| 2026-05-05 00:43 | 45.24623 | -9.47210 | 34056 ft | 422 kts | 359° |
| 2026-05-05 00:43 | 45.30491 | -9.47262 | 34056 ft | 422 kts | 359° |
| 2026-05-05 00:44 | 45.36359 | -9.47311 | 34048 ft | 421 kts | 359° |
| 2026-05-05 00:44 | 45.42217 | -9.47361 | 34044 ft | 421 kts | 360° |
| 2026-05-05 00:45 | 45.48073 | -9.47411 | 34047 ft | 420 kts | 360° |
| 2026-05-05 00:45 | 45.53920 | -9.47461 | 34053 ft | 420 kts | 360° |
| 2026-05-05 00:46 | 45.59762 | -9.47512 | 34054 ft | 420 kts | 360° |
| 2026-05-05 00:46 | 45.65598 | -9.47562 | 34056 ft | 419 kts | 360° |
| 2026-05-05 00:47 | 45.71425 | -9.47613 | 34062 ft | 419 kts | 360° |
| 2026-05-05 00:47 | 45.77214 | -9.47663 | 34056 ft | 419 kts | 360° |
| 2026-05-05 00:48 | 45.83032 | -9.47714 | 34067 ft | 418 kts | 0° |
| 2026-05-05 00:48 | 45.88860 | -9.47765 | 34050 ft | 419 kts | 0° |
| 2026-05-05 00:49 | 45.94687 | -9.47815 | 34046 ft | 419 kts | 0° |
| 2026-05-05 00:49 | 46.00526 | -9.47867 | 34050 ft | 420 kts | 0° |
| 2026-05-05 00:50 | 46.06367 | -9.47918 | 34054 ft | 420 kts | 0° |
| 2026-05-05 00:50 | 46.12215 | -9.47969 | 34054 ft | 420 kts | 0° |
| 2026-05-05 00:51 | 46.18064 | -9.48021 | 34045 ft | 420 kts | 0° |
| 2026-05-05 00:51 | 46.23914 | -9.48073 | 34049 ft | 420 kts | 0° |
| 2026-05-05 00:52 | 46.29767 | -9.48125 | 34042 ft | 420 kts | 0° |
| 2026-05-05 00:52 | 46.35614 | -9.48177 | 34051 ft | 420 kts | 0° |
| 2026-05-05 00:53 | 46.41461 | -9.48229 | 34051 ft | 420 kts | 0° |
| 2026-05-05 00:53 | 46.47300 | -9.48281 | 34050 ft | 420 kts | 0° |
| 2026-05-05 00:54 | 46.53141 | -9.48333 | 34044 ft | 419 kts | 0° |
| 2026-05-05 00:54 | 46.58977 | -9.48385 | 34043 ft | 419 kts | 0° |
| 2026-05-05 00:55 | 46.64804 | -9.48438 | 34054 ft | 418 kts | 0° |
| 2026-05-05 00:55 | 46.70585 | -9.48490 | 34054 ft | 418 kts | 0° |
| 2026-05-05 00:56 | 46.76399 | -9.48542 | 34049 ft | 418 kts | 0° |
| 2026-05-05 00:56 | 46.82211 | -9.48594 | 34042 ft | 417 kts | 1° |
| 2026-05-05 00:57 | 46.88017 | -9.48647 | 34049 ft | 417 kts | 1° |
| 2026-05-05 00:57 | 46.93817 | -9.48700 | 34049 ft | 417 kts | 1° |
| 2026-05-05 00:58 | 46.99616 | -9.48752 | 34042 ft | 417 kts | 1° |
| 2026-05-05 00:58 | 47.05408 | -9.48805 | 34048 ft | 416 kts | 1° |
| 2026-05-05 00:59 | 47.11206 | -9.48858 | 34054 ft | 417 kts | 1° |
| 2026-05-05 00:59 | 47.17013 | -9.48911 | 34053 ft | 417 kts | 1° |
| 2026-05-05 01:00 | 47.22825 | -9.48964 | 34046 ft | 418 kts | 1° |
| 2026-05-05 01:00 | 47.28643 | -9.49018 | 34057 ft | 418 kts | 1° |
| 2026-05-05 01:01 | 47.34467 | -9.49071 | 34052 ft | 419 kts | 1° |
| 2026-05-05 01:01 | 47.40297 | -9.49125 | 34048 ft | 419 kts | 1° |
| 2026-05-05 01:02 | 47.46129 | -9.49179 | 34050 ft | 419 kts | 1° |
| 2026-05-05 01:02 | 47.51932 | -9.49233 | 34055 ft | 420 kts | 1° |
| 2026-05-05 01:03 | 47.57810 | -9.49288 | 34057 ft | 420 kts | 1° |
| 2026-05-05 01:03 | 47.63652 | -9.49342 | 34046 ft | 419 kts | 1° |
| 2026-05-05 01:04 | 47.69442 | -9.49396 | 34059 ft | 419 kts | 1° |
| 2026-05-05 01:04 | 47.78184 | -9.49478 | 34061 ft | 418 kts | 1° |
| 2026-05-05 01:05 | 47.84001 | -9.49533 | 34052 ft | 418 kts | 1° |
| 2026-05-05 01:05 | 47.89851 | -9.49588 | 34057 ft | 417 kts | 1° |
| 2026-05-05 01:06 | 47.95611 | -9.49642 | 34063 ft | 416 kts | 1° |
| 2026-05-05 01:06 | 48.01398 | -9.49697 | 34067 ft | 416 kts | 1° |
| 2026-05-05 01:07 | 48.07177 | -9.49752 | 34069 ft | 415 kts | 1° |
| 2026-05-05 01:07 | 48.12946 | -9.49807 | 34058 ft | 414 kts | 1° |
| 2026-05-05 01:08 | 48.18695 | -9.49861 | 34072 ft | 413 kts | 1° |
| 2026-05-05 01:08 | 48.24447 | -9.49916 | 34073 ft | 413 kts | 1° |
| 2026-05-05 01:09 | 48.30184 | -9.49971 | 34068 ft | 411 kts | 2° |
| 2026-05-05 01:09 | 48.35899 | -9.50026 | 34069 ft | 410 kts | 2° |
| 2026-05-05 01:10 | 48.41605 | -9.50080 | 34070 ft | 410 kts | 1° |
| 2026-05-05 01:10 | 48.47318 | -9.50135 | 34082 ft | 411 kts | 1° |
| 2026-05-05 01:11 | 48.53050 | -9.50190 | 34081 ft | 413 kts | 1° |
| 2026-05-05 01:11 | 48.58801 | -9.50246 | 34080 ft | 414 kts | 1° |
| 2026-05-05 01:12 | 48.64583 | -9.50301 | 34075 ft | 416 kts | 1° |
| 2026-05-05 01:12 | 48.70376 | -9.50313 | 34076 ft | 417 kts | 2° |
| 2026-05-05 01:13 | 48.76187 | -9.50304 | 34080 ft | 417 kts | 2° |
| 2026-05-05 01:13 | 48.81997 | -9.50300 | 34081 ft | 417 kts | 2° |
| 2026-05-05 01:14 | 48.87795 | -9.50300 | 34083 ft | 417 kts | 2° |
| 2026-05-05 01:14 | 48.93580 | -9.50301 | 34066 ft | 412 kts | 2° |
| 2026-05-05 01:15 | 48.99263 | -9.50290 | 34078 ft | 406 kts | 4° |
| 2026-05-05 01:15 | 49.04829 | -9.49180 | 34086 ft | 404 kts | 12° |
| 2026-05-05 01:16 | 49.10357 | -9.47631 | 34087 ft | 404 kts | 12° |
| 2026-05-05 01:16 | 49.15893 | -9.46096 | 34087 ft | 404 kts | 12° |
| 2026-05-05 01:17 | 49.21442 | -9.44590 | 34085 ft | 404 kts | 12° |
| 2026-05-05 01:17 | 49.26979 | -9.43101 | 34083 ft | 404 kts | 12° |
| 2026-05-05 01:18 | 49.31580 | -9.41866 | 34084 ft | 403 kts | 12° |
| 2026-05-05 01:18 | 49.37102 | -9.40380 | 34065 ft | 403 kts | 12° |
| 2026-05-05 01:19 | 49.42600 | -9.38898 | 34076 ft | 400 kts | 12° |
| 2026-05-05 01:19 | 49.48066 | -9.37421 | 34082 ft | 397 kts | 12° |
| 2026-05-05 01:20 | 49.53494 | -9.35950 | 34088 ft | 395 kts | 12° |
| 2026-05-05 01:20 | 49.58891 | -9.34484 | 34088 ft | 393 kts | 12° |
| 2026-05-05 01:21 | 49.64259 | -9.33023 | 34078 ft | 391 kts | 13° |
| 2026-05-05 01:21 | 49.69600 | -9.31565 | 34093 ft | 389 kts | 13° |
| 2026-05-05 01:22 | 49.74933 | -9.30106 | 34093 ft | 389 kts | 13° |
| 2026-05-05 01:22 | 49.80271 | -9.28643 | 34096 ft | 390 kts | 13° |
| 2026-05-05 01:23 | 49.85613 | -9.27175 | 34088 ft | 390 kts | 12° |
| 2026-05-05 01:23 | 49.90968 | -9.25701 | 34097 ft | 391 kts | 12° |
| 2026-05-05 01:24 | 49.96344 | -9.24217 | 34110 ft | 393 kts | 12° |
| 2026-05-05 01:24 | 50.01702 | -9.22736 | 34096 ft | 395 kts | 12° |
| 2026-05-05 01:25 | 50.07152 | -9.21224 | 34084 ft | 396 kts | 12° |
| 2026-05-05 01:25 | 50.12544 | -9.19727 | 34109 ft | 397 kts | 12° |
| 2026-05-05 01:26 | 50.17997 | -9.18209 | 34113 ft | 399 kts | 12° |
| 2026-05-05 01:26 | 50.23466 | -9.16683 | 34111 ft | 400 kts | 12° |
| 2026-05-05 01:27 | 50.28944 | -9.15151 | 34080 ft | 400 kts | 12° |
| 2026-05-05 01:27 | 50.34427 | -9.13613 | 34098 ft | 400 kts | 12° |
| 2026-05-05 01:28 | 50.39907 | -9.12073 | 34108 ft | 400 kts | 12° |
| 2026-05-05 01:28 | 50.45393 | -9.10528 | 34104 ft | 401 kts | 12° |
| 2026-05-05 01:29 | 50.50882 | -9.08977 | 34102 ft | 401 kts | 12° |
| 2026-05-05 01:29 | 50.56371 | -9.07423 | 34097 ft | 401 kts | 11° |
| 2026-05-05 01:30 | 50.61862 | -9.05865 | 34114 ft | 401 kts | 11° |
| 2026-05-05 01:30 | 50.67366 | -9.04300 | 34114 ft | 402 kts | 11° |
| 2026-05-05 01:31 | 50.72882 | -9.02728 | 34115 ft | 403 kts | 11° |
| 2026-05-05 01:31 | 50.78415 | -9.01146 | 34111 ft | 404 kts | 11° |
| 2026-05-05 01:32 | 50.83957 | -8.99559 | 34108 ft | 405 kts | 11° |
| 2026-05-05 01:32 | 50.89506 | -8.97965 | 34108 ft | 405 kts | 11° |
| 2026-05-05 01:33 | 50.95056 | -8.96368 | 34121 ft | 406 kts | 12° |
| 2026-05-05 01:33 | 51.00610 | -8.94765 | 34101 ft | 406 kts | 12° |
| 2026-05-05 01:34 | 51.06158 | -8.93160 | 34111 ft | 405 kts | 12° |
| 2026-05-05 01:34 | 51.11669 | -8.91346 | 34106 ft | 404 kts | 19° |
| 2026-05-05 01:35 | 51.16669 | -8.87506 | 34102 ft | 403 kts | 34° |
| 2026-05-05 01:35 | 51.21170 | -8.82171 | 34109 ft | 403 kts | 36° |
| 2026-05-05 01:36 | 51.25650 | -8.76778 | 34078 ft | 404 kts | 36° |
| 2026-05-05 01:36 | 51.30188 | -8.71359 | 34105 ft | 405 kts | 36° |
| 2026-05-05 01:37 | 51.34690 | -8.65996 | 34116 ft | 408 kts | 36° |
| 2026-05-05 01:37 | 51.39291 | -8.60504 | 34113 ft | 411 kts | 36° |
| 2026-05-05 01:38 | 51.43873 | -8.55106 | 34102 ft | 412 kts | 34° |
| 2026-05-05 01:38 | 51.48674 | -8.50101 | 34099 ft | 411 kts | 32° |
| 2026-05-05 01:39 | 51.53513 | -8.45204 | 34094 ft | 411 kts | 32° |
| 2026-05-05 01:39 | 51.58333 | -8.40276 | 34098 ft | 410 kts | 32° |
| 2026-05-05 01:40 | 51.63138 | -8.35312 | 34104 ft | 411 kts | 32° |
| 2026-05-05 01:40 | 51.67941 | -8.30321 | 34096 ft | 411 kts | 32° |
| 2026-05-05 01:41 | 51.72746 | -8.25314 | 34113 ft | 411 kts | 32° |
| 2026-05-05 01:41 | 51.77547 | -8.20298 | 34082 ft | 412 kts | 32° |
| 2026-05-05 01:42 | 51.82252 | -8.15370 | 33832 ft | 396 kts | 32° |
| 2026-05-05 01:42 | 51.84539 | -8.12969 | 33592 ft | 388 kts | 32° |
| 2026-05-05 01:42 | 51.86792 | -8.10602 | 33227 ft | 384 kts | 32° |
| 2026-05-05 01:43 | 51.89018 | -8.08261 | 32862 ft | 381 kts | 32° |
| 2026-05-05 01:43 | 51.91229 | -8.05933 | 32507 ft | 377 kts | 32° |
| 2026-05-05 01:43 | 51.93423 | -8.03620 | 32143 ft | 374 kts | 32° |
| 2026-05-05 01:43 | 51.95596 | -8.01326 | 31791 ft | 371 kts | 32° |
| 2026-05-05 01:44 | 51.97753 | -7.99047 | 31438 ft | 369 kts | 32° |
| 2026-05-05 01:44 | 51.99892 | -7.96784 | 31093 ft | 366 kts | 32° |
| 2026-05-05 01:44 | 52.02019 | -7.94531 | 30764 ft | 364 kts | 32° |
| 2026-05-05 01:44 | 52.04131 | -7.92292 | 30406 ft | 362 kts | 32° |
| 2026-05-05 01:45 | 52.06233 | -7.90060 | 30052 ft | 360 kts | 32° |
| 2026-05-05 01:45 | 52.08323 | -7.87839 | 29662 ft | 358 kts | 32° |
| 2026-05-05 01:45 | 52.10393 | -7.85636 | 29315 ft | 354 kts | 33° |
| 2026-05-05 01:45 | 52.12442 | -7.83453 | 28970 ft | 351 kts | 33° |
| 2026-05-05 01:46 | 52.14473 | -7.81287 | 28635 ft | 347 kts | 33° |
| 2026-05-05 01:46 | 52.16485 | -7.79139 | 28273 ft | 344 kts | 33° |
| 2026-05-05 01:46 | 52.18480 | -7.77006 | 27944 ft | 341 kts | 33° |
| 2026-05-05 01:46 | 52.20458 | -7.74890 | 27602 ft | 339 kts | 33° |
| 2026-05-05 01:47 | 52.22393 | -7.72817 | 27274 ft | 336 kts | 33° |
| 2026-05-05 01:47 | 52.24341 | -7.70728 | 26952 ft | 334 kts | 33° |
| 2026-05-05 01:47 | 52.26303 | -7.68623 | 26616 ft | 333 kts | 33° |
| 2026-05-05 01:47 | 52.28231 | -7.66551 | 26286 ft | 332 kts | 33° |
| 2026-05-05 01:48 | 52.30148 | -7.64489 | 25933 ft | 336 kts | 33° |
| 2026-05-05 01:48 | 52.32123 | -7.62362 | 25642 ft | 346 kts | 33° |
| 2026-05-05 01:48 | 52.34180 | -7.60145 | 25297 ft | 351 kts | 33° |
| 2026-05-05 01:48 | 52.36188 | -7.57977 | 24949 ft | 349 kts | 33° |
| 2026-05-05 01:49 | 52.38209 | -7.55792 | 24604 ft | 348 kts | 33° |
| 2026-05-05 01:49 | 52.40219 | -7.53619 | 24256 ft | 346 kts | 33° |
| 2026-05-05 01:49 | 52.42221 | -7.51451 | 23919 ft | 344 kts | 33° |
| 2026-05-05 01:49 | 52.44209 | -7.49296 | 23582 ft | 342 kts | 33° |
| 2026-05-05 01:50 | 52.46143 | -7.47042 | 23194 ft | 340 kts | 39° |
| 2026-05-05 01:50 | 52.47922 | -7.44519 | 22869 ft | 337 kts | 41° |
| 2026-05-05 01:50 | 52.49655 | -7.41938 | 22524 ft | 334 kts | 42° |
| 2026-05-05 01:50 | 52.51360 | -7.39371 | 22186 ft | 332 kts | 42° |
| 2026-05-05 01:51 | 52.53060 | -7.36821 | 21840 ft | 330 kts | 42° |
| 2026-05-05 01:51 | 52.54751 | -7.34294 | 21504 ft | 328 kts | 41° |
| 2026-05-05 01:51 | 52.56435 | -7.31789 | 21178 ft | 326 kts | 41° |
| 2026-05-05 01:51 | 52.58110 | -7.29302 | 20862 ft | 324 kts | 41° |
| 2026-05-05 01:52 | 52.59781 | -7.26824 | 20545 ft | 322 kts | 41° |
| 2026-05-05 01:52 | 52.61442 | -7.24361 | 20229 ft | 321 kts | 41° |
| 2026-05-05 01:52 | 52.63096 | -7.21907 | 19915 ft | 319 kts | 41° |
| 2026-05-05 01:52 | 52.64742 | -7.19464 | 19599 ft | 318 kts | 41° |
| 2026-05-05 01:53 | 52.66385 | -7.17024 | 19288 ft | 317 kts | 41° |
| 2026-05-05 01:53 | 52.68021 | -7.14590 | 18979 ft | 316 kts | 41° |
| 2026-05-05 01:53 | 52.69651 | -7.12163 | 18664 ft | 316 kts | 41° |
| 2026-05-05 01:53 | 52.71278 | -7.09738 | 18345 ft | 315 kts | 41° |
| 2026-05-05 01:54 | 52.72904 | -7.07312 | 17991 ft | 314 kts | 41° |
| 2026-05-05 01:54 | 52.74521 | -7.04897 | 17664 ft | 313 kts | 41° |
| 2026-05-05 01:54 | 52.76130 | -7.02490 | 17333 ft | 311 kts | 41° |
| 2026-05-05 01:54 | 52.77730 | -7.00098 | 17035 ft | 310 kts | 41° |
| 2026-05-05 01:55 | 52.79321 | -6.97715 | 16735 ft | 308 kts | 41° |
| 2026-05-05 01:55 | 52.80903 | -6.95342 | 16424 ft | 306 kts | 41° |
| 2026-05-05 01:55 | 52.82479 | -6.92977 | 16123 ft | 305 kts | 41° |
| 2026-05-05 01:55 | 52.84045 | -6.90623 | 15824 ft | 304 kts | 41° |
| 2026-05-05 01:56 | 52.85609 | -6.88273 | 15525 ft | 305 kts | 41° |
| 2026-05-05 01:56 | 52.87209 | -6.85866 | 15252 ft | 322 kts | 41° |
| 2026-05-05 01:56 | 52.88941 | -6.83261 | 14918 ft | 347 kts | 41° |
| 2026-05-05 01:56 | 52.90731 | -6.80562 | 14555 ft | 348 kts | 41° |
| 2026-05-05 01:57 | 52.92521 | -6.77856 | 14211 ft | 348 kts | 41° |
| 2026-05-05 01:57 | 52.94307 | -6.75153 | 13857 ft | 348 kts | 41° |
| 2026-05-05 01:57 | 52.96092 | -6.72451 | 13471 ft | 347 kts | 41° |
| 2026-05-05 01:57 | 52.97875 | -6.69750 | 13080 ft | 346 kts | 41° |
| 2026-05-05 01:58 | 52.99642 | -6.67069 | 12745 ft | 342 kts | 41° |
| 2026-05-05 01:58 | 53.01353 | -6.64362 | 12395 ft | 338 kts | 44° |
| 2026-05-05 01:58 | 53.02977 | -6.61559 | 12038 ft | 335 kts | 45° |
| 2026-05-05 01:58 | 53.04564 | -6.58753 | 11707 ft | 332 kts | 45° |
| 2026-05-05 01:59 | 53.06138 | -6.55966 | 11370 ft | 330 kts | 45° |
| 2026-05-05 01:59 | 53.07707 | -6.53200 | 11043 ft | 327 kts | 45° |
| 2026-05-05 01:59 | 53.09266 | -6.50463 | 10723 ft | 325 kts | 45° |
| 2026-05-05 01:59 | 53.10815 | -6.47748 | 10392 ft | 320 kts | 45° |
| 2026-05-05 02:00 | 53.12317 | -6.45119 | 10227 ft | 307 kts | 45° |
| 2026-05-05 02:00 | 53.13768 | -6.42577 | 10076 ft | 299 kts | 45° |
| 2026-05-05 02:00 | 53.15172 | -6.40116 | 10067 ft | 287 kts | 45° |
| 2026-05-05 02:00 | 53.16530 | -6.37733 | 9572 ft | 286 kts | 45° |
| 2026-05-05 02:01 | 53.17731 | -6.35150 | 9257 ft | 280 kts | 58° |
| 2026-05-05 02:01 | 53.18635 | -6.32289 | 8974 ft | 278 kts | 63° |
| 2026-05-05 02:01 | 53.19473 | -6.29388 | 8682 ft | 277 kts | 63° |
| 2026-05-05 02:01 | 53.20302 | -6.26501 | 8410 ft | 275 kts | 63° |
| 2026-05-05 02:02 | 53.21133 | -6.23638 | 8146 ft | 274 kts | 62° |
| 2026-05-05 02:02 | 53.21971 | -6.20788 | 7866 ft | 273 kts | 62° |
| 2026-05-05 02:02 | 53.22801 | -6.17988 | 7605 ft | 271 kts | 62° |
| 2026-05-05 02:02 | 53.23639 | -6.15175 | 7339 ft | 270 kts | 62° |
| 2026-05-05 02:03 | 53.24482 | -6.12353 | 6980 ft | 273 kts | 61° |
| 2026-05-05 02:03 | 53.25331 | -6.09517 | 6697 ft | 273 kts | 61° |
| 2026-05-05 02:03 | 53.25892 | -6.07643 | 6517 ft | 272 kts | 61° |
| 2026-05-05 02:03 | 53.26738 | -6.04816 | 6224 ft | 271 kts | 61° |
| 2026-05-05 02:04 | 53.27579 | -6.02006 | 5947 ft | 270 kts | 61° |
| 2026-05-05 02:04 | 53.28416 | -5.99209 | 5690 ft | 268 kts | 62° |
| 2026-05-05 02:04 | 53.29250 | -5.96419 | 5370 ft | 269 kts | 62° |
| 2026-05-05 02:04 | 53.30078 | -5.93642 | 5157 ft | 264 kts | 62° |
| 2026-05-05 02:05 | 53.31125 | -5.90122 | 5074 ft | 245 kts | 62° |
| 2026-05-05 02:05 | 53.31658 | -5.88457 | 4997 ft | 236 kts | 53° |
| 2026-05-05 02:05 | 53.32852 | -5.86793 | 4859 ft | 218 kts | 18° |
| 2026-05-05 02:05 | 53.34277 | -5.86413 | 4737 ft | 202 kts | 353° |
| 2026-05-05 02:06 | 53.35605 | -5.86978 | 4495 ft | 195 kts | 333° |
| 2026-05-05 02:06 | 53.36694 | -5.88268 | 4295 ft | 192 kts | 314° |
| 2026-05-05 02:06 | 53.37626 | -5.89898 | 4083 ft | 196 kts | 314° |
| 2026-05-05 02:06 | 53.38577 | -5.91549 | 3871 ft | 199 kts | 314° |
| 2026-05-05 02:07 | 53.39536 | -5.93217 | 3641 ft | 197 kts | 314° |
| 2026-05-05 02:07 | 53.40338 | -5.95007 | 3409 ft | 191 kts | 288° |
| 2026-05-05 02:07 | 53.40467 | -5.97192 | 3239 ft | 189 kts | 275° |
| 2026-05-05 02:07 | 53.40589 | -5.99401 | 3020 ft | 190 kts | 279° |
| 2026-05-05 02:08 | 53.40768 | -6.01589 | 2821 ft | 189 kts | 278° |
| 2026-05-05 02:08 | 53.40902 | -6.03748 | 2617 ft | 183 kts | 277° |
| 2026-05-05 02:08 | 53.41013 | -6.05816 | 2493 ft | 174 kts | 277° |
| 2026-05-05 02:08 | 53.41117 | -6.07818 | 2276 ft | 169 kts | 276° |
| 2026-05-05 02:09 | 53.41215 | -6.09707 | 2089 ft | 155 kts | 277° |
| 2026-05-05 02:09 | 53.41305 | -6.11433 | 1889 ft | 143 kts | 277° |
| 2026-05-05 02:09 | 53.41394 | -6.13102 | 1666 ft | 144 kts | 277° |
| 2026-05-05 02:09 | 53.41481 | -6.14764 | 1465 ft | 144 kts | 277° |
| 2026-05-05 02:10 | 53.41568 | -6.16407 | 1265 ft | 143 kts | 276° |
| 2026-05-05 02:10 | 53.41656 | -6.18063 | 1072 ft | 143 kts | 276° |
| 2026-05-05 02:10 | 53.41737 | -6.19700 | 863 ft | 140 kts | 275° |
| 2026-05-05 02:10 | 53.41812 | -6.21314 | 694 ft | 140 kts | 276° |
| 2026-05-05 02:11 | 53.41909 | -6.22937 | 520 ft | 144 kts | 275° |
| 2026-05-05 02:11 | 53.41997 | -6.24581 | 315 ft | 136 kts | 275° |
| 2026-05-05 02:11 | 53.42085 | -6.26108 | 217 ft | 122 kts | 275° |
| 2026-05-05 02:11 | 53.42151 | -6.27322 | 211 ft | 84 kts | 275° |
| 2026-05-05 02:12 | 53.42190 | -6.28035 | 211 ft | 31 kts | 278° |
| 2026-05-05 02:12 | 53.42354 | -6.28310 | 214 ft | 11 kts | 31° |
| 2026-05-05 02:12 | 53.42372 | -6.28218 | 213 ft | 9 kts | 96° |
| 2026-05-05 02:13 | 53.42366 | -6.28120 | 210 ft | 8 kts | 96° |
| 2026-05-05 02:13 | 53.42360 | -6.28025 | 214 ft | 8 kts | 96° |
| 2026-05-05 02:13 | 53.42355 | -6.27934 | 210 ft | 8 kts | 96° |
| 2026-05-05 02:13 | 53.42349 | -6.27843 | 214 ft | 8 kts | 96° |
| 2026-05-05 02:14 | 53.42344 | -6.27758 | 210 ft | 7 kts | 96° |
| 2026-05-05 02:14 | 53.42339 | -6.27673 | 210 ft | 7 kts | 95° |
| 2026-05-05 02:14 | 53.42335 | -6.27592 | 210 ft | 7 kts | 95° |
| 2026-05-05 02:14 | 53.42330 | -6.27513 | 210 ft | 7 kts | 95° |
| 2026-05-05 02:15 | 53.42327 | -6.27435 | 210 ft | 7 kts | 94° |
| 2026-05-05 02:15 | 53.42324 | -6.27358 | 210 ft | 7 kts | 94° |
| 2026-05-05 02:15 | 53.42321 | -6.27283 | 218 ft | 6 kts | 94° |
| 2026-05-05 02:15 | 53.42317 | -6.27209 | 210 ft | 6 kts | 97° |
| 2026-05-05 02:16 | 53.42312 | -6.27137 | 216 ft | 6 kts | 95° |
| 2026-05-05 02:16 | 53.42307 | -6.27040 | 219 ft | 12 kts | 95° |
| 2026-05-05 02:16 | 53.42298 | -6.26887 | 210 ft | 13 kts | 95° |
| 2026-05-05 02:16 | 53.42291 | -6.26737 | 210 ft | 13 kts | 95° |
| 2026-05-05 02:17 | 53.42283 | -6.26590 | 215 ft | 12 kts | 96° |
| 2026-05-05 02:17 | 53.42275 | -6.26448 | 217 ft | 12 kts | 96° |
| 2026-05-05 02:17 | 53.42267 | -6.26309 | 210 ft | 12 kts | 95° |
| 2026-05-05 02:17 | 53.42259 | -6.26173 | 210 ft | 12 kts | 95° |
| 2026-05-05 02:18 | 53.42252 | -6.26041 | 210 ft | 11 kts | 95° |
| 2026-05-05 02:18 | 53.42245 | -6.25913 | 210 ft | 11 kts | 95° |
| 2026-05-05 02:18 | 53.42238 | -6.25789 | 215 ft | 11 kts | 95° |
| 2026-05-05 02:18 | 53.42231 | -6.25668 | 210 ft | 10 kts | 95° |
| 2026-05-05 02:19 | 53.42225 | -6.25550 | 210 ft | 10 kts | 95° |
| 2026-05-05 02:19 | 53.42219 | -6.25436 | 210 ft | 10 kts | 95° |
| 2026-05-05 02:19 | 53.42212 | -6.25325 | 216 ft | 9 kts | 95° |
| 2026-05-05 02:19 | 53.42206 | -6.25217 | 218 ft | 9 kts | 95° |
| 2026-05-05 02:20 | 53.42201 | -6.25111 | 210 ft | 9 kts | 95° |
| 2026-05-05 02:20 | 53.42217 | -6.25026 | 213 ft | 9 kts | 51° |
| 2026-05-05 02:20 | 53.42256 | -6.24949 | 216 ft | 9 kts | 45° |
| 2026-05-05 02:20 | 53.42297 | -6.24879 | 216 ft | 8 kts | 46° |
| 2026-05-05 02:21 | 53.42347 | -6.24854 | 210 ft | 8 kts | 342° |
| 2026-05-05 02:21 | 53.42399 | -6.24888 | 213 ft | 8 kts | 338° |
| 2026-05-05 02:21 | 53.42448 | -6.24924 | 216 ft | 8 kts | 337° |
| 2026-05-05 02:21 | 53.42496 | -6.24958 | 215 ft | 7 kts | 336° |
| 2026-05-05 02:22 | 53.42542 | -6.24992 | 217 ft | 7 kts | 336° |
| 2026-05-05 02:22 | 53.42587 | -6.25025 | 219 ft | 7 kts | 336° |
| 2026-05-05 02:22 | 53.42634 | -6.25058 | 213 ft | 9 kts | 336° |
| 2026-05-05 02:22 | 53.42703 | -6.25108 | 210 ft | 12 kts | 336° |
| 2026-05-05 02:23 | 53.42784 | -6.25128 | 210 ft | 12 kts | 343° |
| 2026-05-05 02:23 | 53.42859 | -6.25182 | 210 ft | 12 kts | 336° |
| 2026-05-05 02:23 | 53.42931 | -6.25231 | 210 ft | 9 kts | 349° |
| 2026-05-05 02:23 | 53.42960 | -6.25176 | 210 ft | 1 kts | 86° |
| 2026-05-05 02:24 | 53.42960 | -6.25173 | 210 ft | 0 kts | 88° |
| 2026-05-05 02:24 | 53.42960 | -6.25171 | 210 ft | 1 kts | 87° |
| 2026-05-05 02:24 | 53.42976 | -6.25149 | 215 ft | 5 kts | 7° |
| 2026-05-05 02:24 | 53.43008 | -6.25140 | 210 ft | 4 kts | 11° |
| 2026-05-05 02:25 | 53.43013 | -6.25139 | 210 ft | 1 kts | 11° |
| 2026-05-05 02:25 | 53.43017 | -6.25137 | 210 ft | 0 kts | 11° |